sensor_id;sensor_type;location;lat;lon;timestamp;temperature;humidity
7676;DHT22;3880;51.464;-2.566;2022-12-18T00:00:45;-0.40;99.90
7676;DHT22;3880;51.464;-2.566;2022-12-18T00:03:14;-0.50;99.90
7676;DHT22;3880;51.464;-2.566;2022-12-18T00:05:47;-0.50;99.90
7676;DHT22;3880;51.464;-2.566;2022-12-18T06:02:14;2.70;99.90
7676;DHT22;3880;51.464;-2.566;2022-12-18T06:04:42;2.70;99.90
7676;DHT22;3880;51.464;-2.566;2022-12-18T06:07:09;2.70;99.90
7676;DHT22;3880;51.464;-2.566;2022-12-18T06:09:36;2.70;99.90
7676;DHT22;3880;51.464;-2.566;2022-12-18T06:12:03;2.70;99.90
7676;DHT22;3880;51.464;-2.566;2022-12-18T06:14:30;2.70;99.90
7676;DHT22;3880;51.464;-2.566;2022-12-18T06:16:57;2.80;99.90
7676;DHT22;3880;51.464;-2.566;2022-12-18T06:19:26;2.80;99.90
7676;DHT22;3880;51.464;-2.566;2022-12-18T06:21:53;2.80;99.90
7676;DHT22;3880;51.464;-2.566;2022-12-18T06:24:20;2.70;99.90
7676;DHT22;3880;51.464;-2.566;2022-12-18T06:26:47;2.80;99.90
7676;DHT22;3880;51.464;-2.566;2022-12-18T06:29:14;2.80;99.90
7676;DHT22;3880;51.464;-2.566;2022-12-18T06:31:41;2.80;99.90
7676;DHT22;3880;51.464;-2.566;2022-12-18T06:34:08;2.80;99.90
7676;DHT22;3880;51.464;-2.566;2022-12-18T06:36:36;2.70;99.90
7676;DHT22;3880;51.464;-2.566;2022-12-18T06:39:03;2.90;99.90
7676;DHT22;3880;51.464;-2.566;2022-12-18T06:41:30;2.90;99.90
7676;DHT22;3880;51.464;-2.566;2022-12-18T06:43:57;2.80;99.90
7676;DHT22;3880;51.464;-2.566;2022-12-18T06:46:24;2.80;99.90
7676;DHT22;3880;51.464;-2.566;2022-12-18T06:48:51;2.70;99.90
7676;DHT22;3880;51.464;-2.566;2022-12-18T06:51:19;2.70;99.90
7676;DHT22;3880;51.464;-2.566;2022-12-18T06:53:48;2.70;99.90
7676;DHT22;3880;51.464;-2.566;2022-12-18T06:56:15;2.70;99.90
7676;DHT22;3880;51.464;-2.566;2022-12-18T06:58:42;2.90;99.90
7676;DHT22;3880;51.464;-2.566;2022-12-18T07:01:11;2.80;99.90
7676;DHT22;3880;51.464;-2.566;2022-12-18T07:03:39;2.90;99.90
7676;DHT22;3880;51.464;-2.566;2022-12-18T07:06:11;2.90;99.90
7676;DHT22;3880;51.464;-2.566;2022-12-18T07:08:39;2.90;99.90
7676;DHT22;3880;51.464;-2.566;2022-12-18T07:11:07;2.90;99.90
7676;DHT22;3880;51.464;-2.566;2022-12-18T07:13:34;2.90;99.90
7676;DHT22;3880;51.464;-2.566;2022-12-18T07:16:06;2.80;99.90
7676;DHT22;3880;51.464;-2.566;2022-12-18T07:18:33;2.90;99.90
7676;DHT22;3880;51.464;-2.566;2022-12-18T07:21:03;2.90;99.90
7676;DHT22;3880;51.464;-2.566;2022-12-18T07:23:31;2.90;99.90
7676;DHT22;3880;51.464;-2.566;2022-12-18T07:26:01;3.00;99.90
7676;DHT22;3880;51.464;-2.566;2022-12-18T07:28:30;3.00;99.90
7676;DHT22;3880;51.464;-2.566;2022-12-18T07:30:57;3.10;99.90
7676;DHT22;3880;51.464;-2.566;2022-12-18T07:33:25;3.00;99.90
7676;DHT22;3880;51.464;-2.566;2022-12-18T07:35:52;3.00;99.90
7676;DHT22;3880;51.464;-2.566;2022-12-18T07:38:19;3.10;99.90
7676;DHT22;3880;51.464;-2.566;2022-12-18T07:40:46;3.20;99.90
7676;DHT22;3880;51.464;-2.566;2022-12-18T07:43:13;3.20;99.90
7676;DHT22;3880;51.464;-2.566;2022-12-18T07:45:42;3.20;99.90
7676;DHT22;3880;51.464;-2.566;2022-12-18T07:48:09;3.20;99.90
7676;DHT22;3880;51.464;-2.566;2022-12-18T07:50:37;3.20;99.90
7676;DHT22;3880;51.464;-2.566;2022-12-18T07:53:04;3.20;99.90
7676;DHT22;3880;51.464;-2.566;2022-12-18T07:55:31;3.30;99.90
7676;DHT22;3880;51.464;-2.566;2022-12-18T07:58:01;3.30;99.90
7676;DHT22;3880;51.464;-2.566;2022-12-18T08:00:28;3.40;99.90
7676;DHT22;3880;51.464;-2.566;2022-12-18T08:02:59;3.40;99.90
7676;DHT22;3880;51.464;-2.566;2022-12-18T08:05:26;3.50;99.90
7676;DHT22;3880;51.464;-2.566;2022-12-18T08:07:54;3.50;99.90
7676;DHT22;3880;51.464;-2.566;2022-12-18T08:10:21;3.40;99.90
7676;DHT22;3880;51.464;-2.566;2022-12-18T08:12:50;3.40;99.90
7676;DHT22;3880;51.464;-2.566;2022-12-18T08:15:17;3.40;99.90
7676;DHT22;3880;51.464;-2.566;2022-12-18T08:17:44;3.40;99.90
7676;DHT22;3880;51.464;-2.566;2022-12-18T08:20:12;3.30;99.90
7676;DHT22;3880;51.464;-2.566;2022-12-18T08:22:41;3.40;99.90
7676;DHT22;3880;51.464;-2.566;2022-12-18T08:25:09;3.50;99.90
7676;DHT22;3880;51.464;-2.566;2022-12-18T08:27:36;3.40;99.90
7676;DHT22;3880;51.464;-2.566;2022-12-18T08:30:04;3.30;99.90
7676;DHT22;3880;51.464;-2.566;2022-12-18T08:32:31;3.30;99.90
7676;DHT22;3880;51.464;-2.566;2022-12-18T08:34:59;3.30;99.90
7676;DHT22;3880;51.464;-2.566;2022-12-18T08:37:27;3.30;99.90
7676;DHT22;3880;51.464;-2.566;2022-12-18T08:39:54;3.20;99.90
7676;DHT22;3880;51.464;-2.566;2022-12-18T08:42:21;3.20;99.90
7676;DHT22;3880;51.464;-2.566;2022-12-18T08:45:07;3.10;99.90
7676;DHT22;3880;51.464;-2.566;2022-12-18T08:47:34;3.10;99.90
7676;DHT22;3880;51.464;-2.566;2022-12-18T08:50:01;3.10;99.90
7676;DHT22;3880;51.464;-2.566;2022-12-18T08:52:31;3.20;99.90
7676;DHT22;3880;51.464;-2.566;2022-12-18T08:54:58;3.20;99.90
7676;DHT22;3880;51.464;-2.566;2022-12-18T08:57:25;3.20;99.90
7676;DHT22;3880;51.464;-2.566;2022-12-18T08:59:52;3.10;99.90
7676;DHT22;3880;51.464;-2.566;2022-12-18T09:02:19;3.10;99.90
7676;DHT22;3880;51.464;-2.566;2022-12-18T09:04:46;3.20;99.90
7676;DHT22;3880;51.464;-2.566;2022-12-18T09:07:14;3.10;99.90
7676;DHT22;3880;51.464;-2.566;2022-12-18T09:09:42;3.10;99.90
7676;DHT22;3880;51.464;-2.566;2022-12-18T09:12:09;3.20;99.90
7676;DHT22;3880;51.464;-2.566;2022-12-18T09:14:36;3.10;99.90
7676;DHT22;3880;51.464;-2.566;2022-12-18T09:17:03;3.10;99.90
7676;DHT22;3880;51.464;-2.566;2022-12-18T09:19:30;3.10;99.90
7676;DHT22;3880;51.464;-2.566;2022-12-18T09:21:57;3.10;99.90
7676;DHT22;3880;51.464;-2.566;2022-12-18T09:24:26;3.20;99.90
7676;DHT22;3880;51.464;-2.566;2022-12-18T09:26:55;3.20;99.90
7676;DHT22;3880;51.464;-2.566;2022-12-18T09:29:22;3.20;99.90
7676;DHT22;3880;51.464;-2.566;2022-12-18T09:31:49;3.40;99.90
7676;DHT22;3880;51.464;-2.566;2022-12-18T09:34:16;3.20;99.90
7676;DHT22;3880;51.464;-2.566;2022-12-18T09:36:44;3.30;99.90
7676;DHT22;3880;51.464;-2.566;2022-12-18T09:39:10;3.30;99.90
7676;DHT22;3880;51.464;-2.566;2022-12-18T09:41:45;3.30;99.90
7676;DHT22;3880;51.464;-2.566;2022-12-18T09:44:24;3.30;99.90
7676;DHT22;3880;51.464;-2.566;2022-12-18T09:47:05;3.30;99.90
7676;DHT22;3880;51.464;-2.566;2022-12-18T09:49:39;3.30;99.90
7676;DHT22;3880;51.464;-2.566;2022-12-18T09:52:11;3.30;99.90
7676;DHT22;3880;51.464;-2.566;2022-12-18T09:54:40;3.20;99.90
7676;DHT22;3880;51.464;-2.566;2022-12-18T09:57:14;3.30;99.90
7676;DHT22;3880;51.464;-2.566;2022-12-18T09:59:47;3.30;99.90
7676;DHT22;3880;51.464;-2.566;2022-12-18T10:02:19;3.30;99.90
7676;DHT22;3880;51.464;-2.566;2022-12-18T10:05:05;3.40;99.90
7676;DHT22;3880;51.464;-2.566;2022-12-18T10:07:41;3.30;99.90
7676;DHT22;3880;51.464;-2.566;2022-12-18T10:10:19;3.40;99.90
7676;DHT22;3880;51.464;-2.566;2022-12-18T10:12:56;3.50;99.90
7676;DHT22;3880;51.464;-2.566;2022-12-18T10:15:32;3.40;99.90
7676;DHT22;3880;51.464;-2.566;2022-12-18T10:18:10;3.40;99.90
7676;DHT22;3880;51.464;-2.566;2022-12-18T10:20:43;3.40;99.90
7676;DHT22;3880;51.464;-2.566;2022-12-18T10:23:17;3.40;99.90
7676;DHT22;3880;51.464;-2.566;2022-12-18T10:25:53;3.40;99.90
7676;DHT22;3880;51.464;-2.566;2022-12-18T10:28:22;3.50;99.90
7676;DHT22;3880;51.464;-2.566;2022-12-18T10:30:51;3.50;99.90
7676;DHT22;3880;51.464;-2.566;2022-12-18T10:33:20;3.50;99.90
7676;DHT22;3880;51.464;-2.566;2022-12-18T10:35:48;3.50;99.90
7676;DHT22;3880;51.464;-2.566;2022-12-18T10:38:25;3.50;99.90
7676;DHT22;3880;51.464;-2.566;2022-12-18T10:40:55;3.50;99.90
7676;DHT22;3880;51.464;-2.566;2022-12-18T10:43:25;3.50;99.90
7676;DHT22;3880;51.464;-2.566;2022-12-18T10:46:04;3.50;99.90
7676;DHT22;3880;51.464;-2.566;2022-12-18T10:48:33;3.60;99.90
7676;DHT22;3880;51.464;-2.566;2022-12-18T10:51:02;3.60;99.90
7676;DHT22;3880;51.464;-2.566;2022-12-18T10:53:31;3.70;99.90
7676;DHT22;3880;51.464;-2.566;2022-12-18T10:55:59;3.70;99.90
7676;DHT22;3880;51.464;-2.566;2022-12-18T10:58:29;3.70;99.90
7676;DHT22;3880;51.464;-2.566;2022-12-18T11:01:09;3.80;99.90
7676;DHT22;3880;51.464;-2.566;2022-12-18T11:03:38;3.70;99.90
7676;DHT22;3880;51.464;-2.566;2022-12-18T11:06:08;3.80;99.90
7676;DHT22;3880;51.464;-2.566;2022-12-18T11:08:36;3.70;99.90
7676;DHT22;3880;51.464;-2.566;2022-12-18T11:11:07;3.80;99.90
7676;DHT22;3880;51.464;-2.566;2022-12-18T11:13:34;3.80;99.90
7676;DHT22;3880;51.464;-2.566;2022-12-18T11:16:01;3.80;99.90
7676;DHT22;3880;51.464;-2.566;2022-12-18T11:18:31;3.80;99.90
7676;DHT22;3880;51.464;-2.566;2022-12-18T11:21:06;3.80;99.90
7676;DHT22;3880;51.464;-2.566;2022-12-18T11:23:34;3.90;99.90
7676;DHT22;3880;51.464;-2.566;2022-12-18T11:26:04;3.80;99.90
7676;DHT22;3880;51.464;-2.566;2022-12-18T11:28:39;3.80;99.90
7676;DHT22;3880;51.464;-2.566;2022-12-18T11:31:20;3.80;99.90
7676;DHT22;3880;51.464;-2.566;2022-12-18T11:33:54;3.80;99.90
7676;DHT22;3880;51.464;-2.566;2022-12-18T11:36:23;3.90;99.90
7676;DHT22;3880;51.464;-2.566;2022-12-18T11:38:53;3.90;99.90
7676;DHT22;3880;51.464;-2.566;2022-12-18T11:41:26;3.90;99.90
7676;DHT22;3880;51.464;-2.566;2022-12-18T11:44:20;3.90;99.90
7676;DHT22;3880;51.464;-2.566;2022-12-18T11:46:52;4.00;99.90
7676;DHT22;3880;51.464;-2.566;2022-12-18T11:49:26;4.00;99.90
7676;DHT22;3880;51.464;-2.566;2022-12-18T11:52:00;4.00;99.90
7676;DHT22;3880;51.464;-2.566;2022-12-18T11:54:28;4.00;99.90
7676;DHT22;3880;51.464;-2.566;2022-12-18T11:57:01;4.00;99.90
7676;DHT22;3880;51.464;-2.566;2022-12-18T11:59:35;4.00;99.90
7676;DHT22;3880;51.464;-2.566;2022-12-18T12:02:23;4.10;99.90
7676;DHT22;3880;51.464;-2.566;2022-12-18T12:05:18;4.00;99.90
7676;DHT22;3880;51.464;-2.566;2022-12-18T12:07:52;4.10;99.90
7676;DHT22;3880;51.464;-2.566;2022-12-18T12:10:32;4.20;99.90
7676;DHT22;3880;51.464;-2.566;2022-12-18T12:13:17;4.20;99.90
7676;DHT22;3880;51.464;-2.566;2022-12-18T12:15:55;4.20;99.90
7676;DHT22;3880;51.464;-2.566;2022-12-18T12:18:31;4.30;99.90
7676;DHT22;3880;51.464;-2.566;2022-12-18T12:21:06;4.30;99.90
7676;DHT22;3880;51.464;-2.566;2022-12-18T12:23:41;4.30;99.90
7676;DHT22;3880;51.464;-2.566;2022-12-18T12:26:12;4.40;99.90
7676;DHT22;3880;51.464;-2.566;2022-12-18T12:29:04;4.40;99.90
7676;DHT22;3880;51.464;-2.566;2022-12-18T12:31:52;4.40;99.90
7676;DHT22;3880;51.464;-2.566;2022-12-18T12:34:25;4.40;99.90
7676;DHT22;3880;51.464;-2.566;2022-12-18T12:37:09;4.60;99.90
7676;DHT22;3880;51.464;-2.566;2022-12-18T12:39:41;4.60;99.90
7676;DHT22;3880;51.464;-2.566;2022-12-18T12:42:15;4.60;99.90
7676;DHT22;3880;51.464;-2.566;2022-12-18T12:45:14;4.60;99.90
7676;DHT22;3880;51.464;-2.566;2022-12-18T12:47:45;4.70;99.90
7676;DHT22;3880;51.464;-2.566;2022-12-18T12:50:15;4.80;99.90
7676;DHT22;3880;51.464;-2.566;2022-12-18T12:52:46;4.80;99.90
7676;DHT22;3880;51.464;-2.566;2022-12-18T12:55:17;4.80;99.90
7676;DHT22;3880;51.464;-2.566;2022-12-18T12:57:48;4.80;99.90
7676;DHT22;3880;51.464;-2.566;2022-12-18T13:00:19;4.90;99.90
7676;DHT22;3880;51.464;-2.566;2022-12-18T13:02:52;4.90;99.90
7676;DHT22;3880;51.464;-2.566;2022-12-18T13:05:25;5.00;99.90
7676;DHT22;3880;51.464;-2.566;2022-12-18T13:08:00;5.00;99.90
7676;DHT22;3880;51.464;-2.566;2022-12-18T13:10:34;5.00;99.90
7676;DHT22;3880;51.464;-2.566;2022-12-18T13:13:03;5.00;99.90
7676;DHT22;3880;51.464;-2.566;2022-12-18T13:15:40;5.10;99.90
7676;DHT22;3880;51.464;-2.566;2022-12-18T13:18:19;5.10;99.90
7676;DHT22;3880;51.464;-2.566;2022-12-18T13:20:49;5.10;99.90
7676;DHT22;3880;51.464;-2.566;2022-12-18T13:23:29;5.20;99.90
7676;DHT22;3880;51.464;-2.566;2022-12-18T13:25:58;5.20;99.90
7676;DHT22;3880;51.464;-2.566;2022-12-18T13:28:50;5.30;99.90
7676;DHT22;3880;51.464;-2.566;2022-12-18T13:34:19;5.30;99.90
7676;DHT22;3880;51.464;-2.566;2022-12-18T13:36:47;5.40;99.90
7676;DHT22;3880;51.464;-2.566;2022-12-18T13:39:24;5.40;99.90
7676;DHT22;3880;51.464;-2.566;2022-12-18T13:41:53;5.50;99.90
7676;DHT22;3880;51.464;-2.566;2022-12-18T13:44:31;5.50;99.90
7676;DHT22;3880;51.464;-2.566;2022-12-18T13:47:00;5.60;99.90
7676;DHT22;3880;51.464;-2.566;2022-12-18T13:49:36;5.60;99.90
7676;DHT22;3880;51.464;-2.566;2022-12-18T13:52:15;5.70;99.90
7676;DHT22;3880;51.464;-2.566;2022-12-18T13:54:47;5.70;99.90
7676;DHT22;3880;51.464;-2.566;2022-12-18T13:57:26;5.70;99.90
7676;DHT22;3880;51.464;-2.566;2022-12-18T13:59:53;5.70;99.90
7676;DHT22;3880;51.464;-2.566;2022-12-18T14:02:23;5.80;99.90
7676;DHT22;3880;51.464;-2.566;2022-12-18T14:04:50;5.90;99.90
7676;DHT22;3880;51.464;-2.566;2022-12-18T14:07:19;6.00;99.90
7676;DHT22;3880;51.464;-2.566;2022-12-18T14:09:50;6.00;99.90
7676;DHT22;3880;51.464;-2.566;2022-12-18T14:12:20;6.10;99.90
7676;DHT22;3880;51.464;-2.566;2022-12-18T14:15:09;6.10;99.90
7676;DHT22;3880;51.464;-2.566;2022-12-18T14:17:39;6.20;99.90
7676;DHT22;3880;51.464;-2.566;2022-12-18T14:20:13;6.30;99.90
7676;DHT22;3880;51.464;-2.566;2022-12-18T14:22:43;6.40;99.90
7676;DHT22;3880;51.464;-2.566;2022-12-18T14:25:21;6.40;99.90
7676;DHT22;3880;51.464;-2.566;2022-12-18T14:27:52;6.50;99.90
7676;DHT22;3880;51.464;-2.566;2022-12-18T14:30:27;6.70;99.90
7676;DHT22;3880;51.464;-2.566;2022-12-18T14:33:02;6.90;99.90
7676;DHT22;3880;51.464;-2.566;2022-12-18T14:35:29;7.10;99.90
7676;DHT22;3880;51.464;-2.566;2022-12-18T14:38:10;7.40;99.90
7676;DHT22;3880;51.464;-2.566;2022-12-18T14:40:39;7.50;99.90
7676;DHT22;3880;51.464;-2.566;2022-12-18T14:43:09;7.60;99.90
7676;DHT22;3880;51.464;-2.566;2022-12-18T14:45:37;7.70;99.90
7676;DHT22;3880;51.464;-2.566;2022-12-18T14:48:07;7.80;99.90
7676;DHT22;3880;51.464;-2.566;2022-12-18T14:50:35;7.90;99.90
7676;DHT22;3880;51.464;-2.566;2022-12-18T14:53:02;7.90;99.90
7676;DHT22;3880;51.464;-2.566;2022-12-18T14:55:29;8.00;99.90
7676;DHT22;3880;51.464;-2.566;2022-12-18T14:57:57;8.10;99.90
7676;DHT22;3880;51.464;-2.566;2022-12-18T15:00:25;8.10;99.90
7676;DHT22;3880;51.464;-2.566;2022-12-18T15:02:54;8.10;99.90
7676;DHT22;3880;51.464;-2.566;2022-12-18T15:05:25;8.30;99.90
7676;DHT22;3880;51.464;-2.566;2022-12-18T15:07:54;8.30;99.90
7676;DHT22;3880;51.464;-2.566;2022-12-18T15:10:23;8.30;99.90
7676;DHT22;3880;51.464;-2.566;2022-12-18T15:13:08;8.30;99.90
7676;DHT22;3880;51.464;-2.566;2022-12-18T15:15:46;8.30;99.90
7676;DHT22;3880;51.464;-2.566;2022-12-18T15:18:15;8.30;99.90
7676;DHT22;3880;51.464;-2.566;2022-12-18T15:20:48;8.40;99.90
7676;DHT22;3880;51.464;-2.566;2022-12-18T15:23:18;8.30;99.90
7676;DHT22;3880;51.464;-2.566;2022-12-18T15:25:47;8.40;99.90
7676;DHT22;3880;51.464;-2.566;2022-12-18T15:28:21;8.40;99.90
7676;DHT22;3880;51.464;-2.566;2022-12-18T15:31:17;8.40;99.90
7676;DHT22;3880;51.464;-2.566;2022-12-18T15:34:10;8.50;99.90
7676;DHT22;3880;51.464;-2.566;2022-12-18T15:36:38;8.50;99.90
7676;DHT22;3880;51.464;-2.566;2022-12-18T15:39:05;8.50;99.90
7676;DHT22;3880;51.464;-2.566;2022-12-18T15:41:33;8.50;99.90
7676;DHT22;3880;51.464;-2.566;2022-12-18T15:44:02;8.60;99.90
7676;DHT22;3880;51.464;-2.566;2022-12-18T15:46:28;8.60;99.90
7676;DHT22;3880;51.464;-2.566;2022-12-18T15:48:57;8.60;99.90
7676;DHT22;3880;51.464;-2.566;2022-12-18T15:51:27;8.60;99.90
7676;DHT22;3880;51.464;-2.566;2022-12-18T15:53:56;8.60;99.90
7676;DHT22;3880;51.464;-2.566;2022-12-18T15:56:25;8.60;99.90
7676;DHT22;3880;51.464;-2.566;2022-12-18T15:59:13;8.70;99.90
7676;DHT22;3880;51.464;-2.566;2022-12-18T16:01:41;8.60;99.90
7676;DHT22;3880;51.464;-2.566;2022-12-18T16:04:10;8.70;99.90
7676;DHT22;3880;51.464;-2.566;2022-12-18T16:06:38;8.60;99.90
7676;DHT22;3880;51.464;-2.566;2022-12-18T16:09:05;8.70;99.90
7676;DHT22;3880;51.464;-2.566;2022-12-18T16:11:35;8.70;99.90
7676;DHT22;3880;51.464;-2.566;2022-12-18T16:14:15;8.70;99.90
7676;DHT22;3880;51.464;-2.566;2022-12-18T16:16:43;8.70;99.90
7676;DHT22;3880;51.464;-2.566;2022-12-18T16:19:10;8.70;99.90
7676;DHT22;3880;51.464;-2.566;2022-12-18T16:21:37;8.70;99.90
7676;DHT22;3880;51.464;-2.566;2022-12-18T16:24:05;8.70;99.90
7676;DHT22;3880;51.464;-2.566;2022-12-18T16:26:32;8.70;99.90
7676;DHT22;3880;51.464;-2.566;2022-12-18T16:28:59;8.80;99.90
7676;DHT22;3880;51.464;-2.566;2022-12-18T16:31:27;8.80;99.90
7676;DHT22;3880;51.464;-2.566;2022-12-18T16:34:09;8.80;99.90
7676;DHT22;3880;51.464;-2.566;2022-12-18T16:36:37;8.80;99.90
7676;DHT22;3880;51.464;-2.566;2022-12-18T16:39:04;8.80;99.90
7676;DHT22;3880;51.464;-2.566;2022-12-18T16:41:31;8.70;99.90
7676;DHT22;3880;51.464;-2.566;2022-12-18T16:43:58;8.80;99.90
7676;DHT22;3880;51.464;-2.566;2022-12-18T16:46:27;8.80;99.90
7676;DHT22;3880;51.464;-2.566;2022-12-18T16:48:54;8.80;99.90
7676;DHT22;3880;51.464;-2.566;2022-12-18T16:51:23;8.90;99.90
7676;DHT22;3880;51.464;-2.566;2022-12-18T16:53:50;8.90;99.90
7676;DHT22;3880;51.464;-2.566;2022-12-18T16:56:17;8.90;99.90
7676;DHT22;3880;51.464;-2.566;2022-12-18T16:58:50;9.00;99.90
7676;DHT22;3880;51.464;-2.566;2022-12-18T17:01:17;9.00;99.90
7676;DHT22;3880;51.464;-2.566;2022-12-18T17:03:51;9.00;99.90
7676;DHT22;3880;51.464;-2.566;2022-12-18T17:06:19;9.00;99.90
7676;DHT22;3880;51.464;-2.566;2022-12-18T17:08:46;9.10;99.90
7676;DHT22;3880;51.464;-2.566;2022-12-18T17:11:13;9.10;99.90
7676;DHT22;3880;51.464;-2.566;2022-12-18T17:13:41;9.10;99.90
7676;DHT22;3880;51.464;-2.566;2022-12-18T17:16:09;9.10;99.90
7676;DHT22;3880;51.464;-2.566;2022-12-18T17:18:36;9.10;99.90
7676;DHT22;3880;51.464;-2.566;2022-12-18T17:21:05;9.10;99.90
7676;DHT22;3880;51.464;-2.566;2022-12-18T17:23:37;9.20;99.90
7676;DHT22;3880;51.464;-2.566;2022-12-18T17:26:05;9.20;99.90
7676;DHT22;3880;51.464;-2.566;2022-12-18T17:28:33;9.10;99.90
7676;DHT22;3880;51.464;-2.566;2022-12-18T17:31:00;9.20;99.90
7676;DHT22;3880;51.464;-2.566;2022-12-18T17:33:28;9.20;99.90
7676;DHT22;3880;51.464;-2.566;2022-12-18T17:35:57;9.30;99.90
7676;DHT22;3880;51.464;-2.566;2022-12-18T17:38:26;9.30;99.90
7676;DHT22;3880;51.464;-2.566;2022-12-18T17:40:53;9.40;99.90
7676;DHT22;3880;51.464;-2.566;2022-12-18T17:43:20;9.50;99.90
7676;DHT22;3880;51.464;-2.566;2022-12-18T17:45:47;9.50;99.90
7676;DHT22;3880;51.464;-2.566;2022-12-18T17:48:14;9.60;99.90
7676;DHT22;3880;51.464;-2.566;2022-12-18T17:50:42;9.70;99.90
7676;DHT22;3880;51.464;-2.566;2022-12-18T17:53:10;9.70;99.90
7676;DHT22;3880;51.464;-2.566;2022-12-18T17:55:39;9.80;99.90
7676;DHT22;3880;51.464;-2.566;2022-12-18T17:58:06;9.80;99.90
7676;DHT22;3880;51.464;-2.566;2022-12-18T18:00:33;9.80;99.90
7676;DHT22;3880;51.464;-2.566;2022-12-18T18:03:00;9.80;99.90
7676;DHT22;3880;51.464;-2.566;2022-12-18T18:05:28;9.90;99.90
7676;DHT22;3880;51.464;-2.566;2022-12-18T18:07:55;9.90;99.90
7676;DHT22;3880;51.464;-2.566;2022-12-18T18:10:22;9.90;99.90
7676;DHT22;3880;51.464;-2.566;2022-12-18T18:12:51;10.00;99.90
7676;DHT22;3880;51.464;-2.566;2022-12-18T18:15:35;10.00;99.90
7676;DHT22;3880;51.464;-2.566;2022-12-18T18:18:02;10.10;99.90
7676;DHT22;3880;51.464;-2.566;2022-12-18T18:20:30;10.10;99.90
7676;DHT22;3880;51.464;-2.566;2022-12-18T18:22:57;10.10;99.90
7676;DHT22;3880;51.464;-2.566;2022-12-18T18:25:24;10.20;99.90
7676;DHT22;3880;51.464;-2.566;2022-12-18T18:27:53;10.10;99.90
7676;DHT22;3880;51.464;-2.566;2022-12-18T18:30:20;10.20;99.90
7676;DHT22;3880;51.464;-2.566;2022-12-18T18:32:47;10.20;99.90
7676;DHT22;3880;51.464;-2.566;2022-12-18T18:35:15;10.20;99.90
7676;DHT22;3880;51.464;-2.566;2022-12-18T18:37:41;10.10;99.90
7676;DHT22;3880;51.464;-2.566;2022-12-18T18:40:09;10.20;99.90
7676;DHT22;3880;51.464;-2.566;2022-12-18T18:42:36;10.20;99.90
7676;DHT22;3880;51.464;-2.566;2022-12-18T18:45:06;10.20;99.90
7676;DHT22;3880;51.464;-2.566;2022-12-18T18:47:33;10.30;99.90
7676;DHT22;3880;51.464;-2.566;2022-12-18T18:50:00;10.30;99.90
7676;DHT22;3880;51.464;-2.566;2022-12-18T18:52:28;10.40;99.90
7676;DHT22;3880;51.464;-2.566;2022-12-18T18:54:58;10.30;99.90
7676;DHT22;3880;51.464;-2.566;2022-12-18T18:57:25;10.40;99.90
7676;DHT22;3880;51.464;-2.566;2022-12-18T18:59:52;10.40;99.90
7676;DHT22;3880;51.464;-2.566;2022-12-18T19:02:20;10.40;99.90
7676;DHT22;3880;51.464;-2.566;2022-12-18T19:04:47;10.40;99.90
7676;DHT22;3880;51.464;-2.566;2022-12-18T19:07:15;10.50;99.90
7676;DHT22;3880;51.464;-2.566;2022-12-18T19:09:42;10.60;99.90
7676;DHT22;3880;51.464;-2.566;2022-12-18T19:12:10;10.60;99.90
7676;DHT22;3880;51.464;-2.566;2022-12-18T19:14:54;10.70;99.90
7676;DHT22;3880;51.464;-2.566;2022-12-18T19:17:22;10.70;99.90
7676;DHT22;3880;51.464;-2.566;2022-12-18T19:19:50;10.80;99.90
7676;DHT22;3880;51.464;-2.566;2022-12-18T19:22:17;10.80;99.90
7676;DHT22;3880;51.464;-2.566;2022-12-18T19:24:45;10.90;99.90
7676;DHT22;3880;51.464;-2.566;2022-12-18T19:27:12;10.90;99.90
7676;DHT22;3880;51.464;-2.566;2022-12-18T19:29:39;10.90;99.90
7676;DHT22;3880;51.464;-2.566;2022-12-18T19:32:06;11.00;99.90
7676;DHT22;3880;51.464;-2.566;2022-12-18T19:34:37;11.00;99.90
7676;DHT22;3880;51.464;-2.566;2022-12-18T19:37:04;11.10;99.90
7676;DHT22;3880;51.464;-2.566;2022-12-18T19:39:31;11.10;99.90
7676;DHT22;3880;51.464;-2.566;2022-12-18T19:41:58;11.10;99.90
7676;DHT22;3880;51.464;-2.566;2022-12-18T19:44:25;11.10;99.90
7676;DHT22;3880;51.464;-2.566;2022-12-18T19:46:52;11.20;99.90
7676;DHT22;3880;51.464;-2.566;2022-12-18T19:49:22;11.20;99.90
7676;DHT22;3880;51.464;-2.566;2022-12-18T19:51:52;11.30;99.90
7676;DHT22;3880;51.464;-2.566;2022-12-18T19:54:19;11.30;99.90
7676;DHT22;3880;51.464;-2.566;2022-12-18T19:56:46;11.30;99.90
7676;DHT22;3880;51.464;-2.566;2022-12-18T19:59:13;11.30;99.90
7676;DHT22;3880;51.464;-2.566;2022-12-18T20:01:41;11.40;99.90
7676;DHT22;3880;51.464;-2.566;2022-12-18T20:04:08;11.40;99.90
7676;DHT22;3880;51.464;-2.566;2022-12-18T20:06:44;11.50;99.90
7676;DHT22;3880;51.464;-2.566;2022-12-18T20:09:32;11.50;99.90
7676;DHT22;3880;51.464;-2.566;2022-12-18T20:12:04;11.50;99.90
7676;DHT22;3880;51.464;-2.566;2022-12-18T20:14:31;11.50;99.90
7676;DHT22;3880;51.464;-2.566;2022-12-18T20:16:58;11.50;99.90
7676;DHT22;3880;51.464;-2.566;2022-12-18T20:19:25;11.60;99.90
7676;DHT22;3880;51.464;-2.566;2022-12-18T20:21:52;11.50;99.90
7676;DHT22;3880;51.464;-2.566;2022-12-18T20:24:20;11.60;99.90
7676;DHT22;3880;51.464;-2.566;2022-12-18T20:26:48;11.60;99.90
7676;DHT22;3880;51.464;-2.566;2022-12-18T20:29:16;11.60;99.90
7676;DHT22;3880;51.464;-2.566;2022-12-18T20:31:43;11.60;99.90
7676;DHT22;3880;51.464;-2.566;2022-12-18T20:34:10;11.60;99.90
7676;DHT22;3880;51.464;-2.566;2022-12-18T20:36:37;11.70;99.90
7676;DHT22;3880;51.464;-2.566;2022-12-18T20:39:04;11.70;99.90
7676;DHT22;3880;51.464;-2.566;2022-12-18T20:41:31;11.70;99.90
7676;DHT22;3880;51.464;-2.566;2022-12-18T20:44:00;11.70;99.90
7676;DHT22;3880;51.464;-2.566;2022-12-18T20:46:27;11.80;99.90
7676;DHT22;3880;51.464;-2.566;2022-12-18T20:48:54;11.70;99.90
7676;DHT22;3880;51.464;-2.566;2022-12-18T20:51:22;11.70;99.90
7676;DHT22;3880;51.464;-2.566;2022-12-18T20:53:51;11.70;99.90
7676;DHT22;3880;51.464;-2.566;2022-12-18T20:56:21;11.70;99.90
7676;DHT22;3880;51.464;-2.566;2022-12-18T20:58:49;11.70;99.90
7676;DHT22;3880;51.464;-2.566;2022-12-18T21:01:19;11.70;99.90
7676;DHT22;3880;51.464;-2.566;2022-12-18T21:03:46;11.70;99.90
7676;DHT22;3880;51.464;-2.566;2022-12-18T21:06:15;11.70;99.90
7676;DHT22;3880;51.464;-2.566;2022-12-18T21:08:43;11.70;99.90
7676;DHT22;3880;51.464;-2.566;2022-12-18T21:11:15;11.80;99.90
7676;DHT22;3880;51.464;-2.566;2022-12-18T21:13:56;11.90;99.90
7676;DHT22;3880;51.464;-2.566;2022-12-18T21:16:24;11.90;99.90
7676;DHT22;3880;51.464;-2.566;2022-12-18T21:18:52;11.90;99.90
7676;DHT22;3880;51.464;-2.566;2022-12-18T21:21:19;11.90;99.90
7676;DHT22;3880;51.464;-2.566;2022-12-18T21:23:46;11.90;99.90
7676;DHT22;3880;51.464;-2.566;2022-12-18T21:26:17;11.90;99.90
7676;DHT22;3880;51.464;-2.566;2022-12-18T21:28:44;12.00;99.90
7676;DHT22;3880;51.464;-2.566;2022-12-18T21:31:12;12.00;99.90
7676;DHT22;3880;51.464;-2.566;2022-12-18T21:33:40;12.10;99.90
7676;DHT22;3880;51.464;-2.566;2022-12-18T21:36:08;12.10;99.90
7676;DHT22;3880;51.464;-2.566;2022-12-18T21:38:35;12.10;99.90
7676;DHT22;3880;51.464;-2.566;2022-12-18T21:41:05;12.10;99.90
7676;DHT22;3880;51.464;-2.566;2022-12-18T21:43:33;12.20;99.90
7676;DHT22;3880;51.464;-2.566;2022-12-18T21:46:19;12.20;99.90
7676;DHT22;3880;51.464;-2.566;2022-12-18T21:48:48;12.30;99.90
7676;DHT22;3880;51.464;-2.566;2022-12-18T21:51:15;12.30;99.90
7676;DHT22;3880;51.464;-2.566;2022-12-18T21:53:42;12.30;99.90
7676;DHT22;3880;51.464;-2.566;2022-12-18T21:56:09;12.40;99.90
7676;DHT22;3880;51.464;-2.566;2022-12-18T21:58:36;12.40;99.90
7676;DHT22;3880;51.464;-2.566;2022-12-18T22:01:03;12.30;99.90
7676;DHT22;3880;51.464;-2.566;2022-12-18T22:03:30;12.30;99.90
7676;DHT22;3880;51.464;-2.566;2022-12-18T22:05:58;12.40;99.90
7676;DHT22;3880;51.464;-2.566;2022-12-18T22:08:25;12.40;99.90
7676;DHT22;3880;51.464;-2.566;2022-12-18T22:10:52;12.40;99.90
7676;DHT22;3880;51.464;-2.566;2022-12-18T22:13:19;12.40;99.90